Time;durP1;ratioP1;P1;durP2;ratioP2;P2;SDS_P1;SDS_P2;PMS_P1;PMS_P2;Temp;Humidity;BMP_temperature;BMP_pressure;BME280_temperature;BME280_humidity;BME280_pressure;Samples;Min_cycle;Max_cycle;Signal;HPM_P1;HPM_P2
2022/08/13 00:08:26;;;;;;;12.37;7.47;;;;;;;20.39;63.44;100398.50;30150522;28;97143;-61
2022/08/13 00:23:28;;;;;;;9.50;8.32;;;;;;;20.20;63.89;100406.66;30149034;28;96765;-61
2022/08/13 00:38:28;;;;;;;9.20;7.80;;;;;;;20.20;64.52;100395.84;30146735;29;97516;-61
2022/08/13 00:53:30;;;;;;;9.93;8.40;;;;;;;19.95;64.78;100391.38;30147669;29;96807;-61
2022/08/13 01:08:34;;;;;;;9.73;7.80;;;;;;;19.90;65.38;100402.06;30143453;28;96723;-61
2022/08/13 01:23:35;;;;;;;9.03;7.33;;;;;;;20.06;65.47;100384.38;30142852;28;97168;-61
2022/08/13 01:38:36;;;;;;;9.50;7.33;;;;;;;20.00;65.61;100379.03;30142910;29;96835;-61
2022/08/13 01:53:38;;;;;;;;;;;;;;;19.75;65.75;100361.03;30142293;28;96849;-60
2022/08/13 02:08:40;;;;;;;10.13;8.00;;;;;;;19.66;66.45;100373.22;30141558;28;96699;-63
2022/08/13 02:23:40;;;;;;;10.13;7.60;;;;;;;19.47;67.31;100375.91;30138170;28;96767;-61
2022/08/13 02:38:42;;;;;;;10.27;7.47;;;;;;;19.09;69.24;100356.13;30137711;28;96781;-62
2022/08/13 02:53:43;;;;;;;9.43;8.20;;;;;;;19.00;70.64;100333.19;30136833;28;96793;-61
2022/08/13 03:08:43;;;;;;;13.35;9.30;;;;;;;18.98;71.82;100335.25;30134450;28;97311;-61
2022/08/13 03:23:44;;;;;;;8.98;7.80;;;;;;;18.95;72.50;100324.91;30133767;28;97483;-61
2022/08/13 03:38:45;;;;;;;13.77;9.32;;;;;;;18.96;73.20;100326.59;30150260;28;97308;-61
2022/08/13 03:53:45;;;;;;;12.85;9.30;;;;;;;18.92;73.49;100326.19;30150538;28;96842;-65
2022/08/13 04:08:47;;;;;;;12.80;10.07;;;;;;;18.93;74.23;100322.44;30150041;29;96944;-61
2022/08/13 04:23:50;;;;;;;11.53;9.13;;;;;;;18.91;74.64;100318.31;30149162;28;97285;-66
2022/08/13 04:38:51;;;;;;;13.57;9.13;;;;;;;19.00;74.91;100300.78;30145870;28;97096;-62
2022/08/13 04:53:52;;;;;;;10.38;8.77;;;;;;;19.06;75.12;100307.97;30145122;28;97688;-61
2022/08/13 05:08:53;;;;;;;11.27;9.00;;;;;;;19.01;75.27;100317.81;30144061;28;96626;-61
2022/08/13 05:23:53;;;;;;;10.77;8.52;;;;;;;19.03;75.86;100315.72;30142690;29;97340;-62
2022/08/13 05:38:55;;;;;;;11.27;9.15;;;;;;;18.97;76.41;100314.72;30139857;28;107984;-61
2022/08/13 05:53:59;;;;;;;10.70;9.10;;;;;;;18.98;76.78;100310.16;30138442;28;96749;-61
2022/08/13 06:08:59;;;;;;;13.20;9.77;;;;;;;18.99;77.34;100304.53;30138671;28;96793;-61
2022/08/13 06:24:00;;;;;;;11.68;10.13;;;;;;;19.04;77.65;100301.16;30136316;28;96706;-61
2022/08/13 06:39:04;;;;;;;14.07;11.30;;;;;;;19.13;77.79;100305.22;30134368;29;96932;-61
2022/08/13 06:54:08;;;;;;;13.70;10.90;;;;;;;19.42;78.22;100308.22;30133830;28;96866;-61
2022/08/13 07:09:08;;;;;;;15.23;11.87;;;;;;;19.87;77.76;100310.56;30114511;28;96847;-66
2022/08/13 07:24:10;;;;;;;15.57;11.63;;;;;;;20.32;77.31;100301.19;30035569;29;96727;-63
2022/08/13 07:39:12;;;;;;;14.40;11.57;;;;;;;20.71;77.11;100298.94;30026375;29;97206;-66
2022/08/13 07:54:13;;;;;;;16.33;11.93;;;;;;;21.10;76.31;100309.28;30021312;29;97188;-64
2022/08/13 08:09:23;;;;;;;15.37;12.23;;;;;;;21.05;75.63;100301.03;30024206;29;97620;-62
2022/08/13 08:24:23;;;;;;;17.83;13.07;;;;;;;20.99;75.42;100316.34;30021166;29;98084;-63
2022/08/13 08:54:47;;;;;;;16.97;12.80;;;;;;;21.12;75.43;100331.53;30053069;29;97040;-63
2022/08/13 09:09:55;;;;;;;15.37;12.90;;;;;;;21.18;75.60;100327.88;30027611;29;97333;-62
2022/08/13 09:24:57;;;;;;;15.43;13.30;;;;;;;21.60;75.25;100306.03;30024359;29;96786;-61
2022/08/13 09:40:12;;;;;;;13.63;11.87;;;;;;;22.51;74.58;100315.25;30013480;29;97441;-61
2022/08/13 09:55:13;;;;;;;13.57;11.87;;;;;;;22.35;73.52;100303.34;30011511;29;97747;-62
2022/08/13 10:10:15;;;;;;;14.57;11.57;;;;;;;23.07;74.02;100298.16;30020221;29;96960;-62
2022/08/13 10:25:17;;;;;;;11.07;9.73;;;;;;;26.90;69.11;100292.88;30020346;29;97537;-62
2022/08/13 10:40:17;;;;;;;10.23;9.23;;;;;;;26.38;64.42;100288.53;30034112;29;96819;-64
2022/08/13 10:55:18;;;;;;;10.85;9.60;;;;;;;25.76;65.66;100272.88;30057849;29;99190;-61
2022/08/13 11:10:20;;;;;;;11.32;9.13;;;;;;;26.04;63.95;100250.84;30057222;29;97571;-62
2022/08/13 11:25:22;;;;;;;13.73;9.20;;;;;;;25.89;63.27;100237.97;30055799;29;96834;-61
2022/08/13 11:40:22;;;;;;;13.13;10.27;;;;;;;25.97;62.74;100241.00;30054573;29;97265;-62
2022/08/13 11:55:23;;;;;;;10.07;9.07;;;;;;;25.66;62.01;100246.41;30040695;29;96913;-62
2022/08/13 12:10:23;;;;;;;12.52;9.57;;;;;;;28.02;57.77;100226.97;30031288;29;97344;-63
2022/08/13 12:25:27;;;;;;;10.80;9.10;;;;;;;28.20;55.53;100229.00;30030530;29;97615;-64
2022/08/13 12:40:27;;;;;;;11.27;8.63;;;;;;;28.66;53.07;100213.25;30029270;29;97343;-62
2022/08/13 12:55:28;;;;;;;10.80;9.02;;;;;;;27.94;52.25;100209.22;30029717;29;97396;-64
2022/08/13 13:10:28;;;;;;;12.48;10.73;;;;;;;28.06;51.82;100197.09;30028249;29;96782;-61
2022/08/13 13:25:28;;;;;;;13.07;10.57;;;;;;;27.88;52.00;100188.44;30040876;29;96813;-63
2022/08/13 13:40:29;;;;;;;13.68;11.35;;;;;;;28.17;51.14;100182.19;30024678;29;97234;-62
2022/08/13 13:55:29;;;;;;;14.20;11.77;;;;;;;27.82;51.68;100178.66;30024157;29;96751;-63
2022/08/13 14:10:31;;;;;;;15.90;11.93;;;;;;;27.39;52.63;100184.69;30021106;29;97431;-62
2022/08/13 14:25:33;;;;;;;13.63;11.80;;;;;;;28.32;52.41;100159.31;30020934;29;96767;-64
2022/08/13 14:40:33;;;;;;;13.60;11.93;;;;;;;29.44;50.21;100134.34;30019753;29;96714;-63
2022/08/13 14:55:34;;;;;;;13.15;10.57;;;;;;;29.57;49.22;100126.47;30020095;29;97381;-63
2022/08/13 15:10:34;;;;;;;14.37;12.00;;;;;;;27.40;52.43;100133.56;30018224;29;96791;-65
2022/08/13 15:25:37;;;;;;;15.10;12.57;;;;;;;24.49;59.55;100098.53;30024400;29;97293;-61
2022/08/13 15:40:37;;;;;;;19.00;13.80;;;;;;;23.80;63.05;100129.38;30034920;29;96843;-63
2022/08/13 15:55:38;;;;;;;17.65;13.00;;;;;;;23.22;65.73;100137.25;30034499;29;97445;-64
2022/08/13 16:10:39;;;;;;;29.43;19.67;;;;;;;22.97;68.23;100112.22;30032706;29;96936;-61
2022/08/13 16:25:40;;;;;;;;;;;;;;;23.23;69.78;100104.38;30033104;29;97505;-63
2022/08/13 16:40:51;;;;;;;21.20;16.27;;;;;;;23.20;70.45;100093.22;30030306;29;97319;-61
2022/08/13 16:55:51;;;;;;;13.80;12.43;;;;;;;23.03;70.97;100088.66;30030559;29;96897;-63
2022/08/13 17:10:51;;;;;;;;;;;;;;;23.02;71.43;100075.34;30029244;29;97286;-63
2022/08/13 17:25:53;;;;;;;12.00;10.07;;;;;;;22.78;71.97;100072.91;30028296;29;96697;-61
2022/08/13 17:40:55;;;;;;;12.93;10.03;;;;;;;22.60;72.38;100074.06;30024714;29;96769;-62
2022/08/13 17:55:56;;;;;;;11.63;9.97;;;;;;;22.34;72.64;100084.59;30023120;29;96722;-63
2022/08/13 18:10:57;;;;;;;16.30;11.83;;;;;;;22.10;72.90;100086.66;30021288;29;97251;-63
2022/08/13 18:25:58;;;;;;;13.33;10.40;;;;;;;21.94;73.30;100116.28;30021873;29;97339;-63
2022/08/13 18:40:58;;;;;;;14.77;12.03;;;;;;;21.85;73.99;100117.75;30019143;29;96826;-61
2022/08/13 18:55:59;;;;;;;19.27;14.53;;;;;;;21.71;74.64;100119.97;30020809;29;96888;-64
2022/08/13 19:11:04;;;;;;;16.20;13.25;;;;;;;21.62;75.65;100143.97;30037994;29;96976;-63
2022/08/13 19:26:04;;;;;;;18.27;12.87;;;;;;;21.54;75.89;100157.09;30035853;29;97365;-64
2022/08/13 19:41:07;;;;;;;14.83;11.60;;;;;;;21.41;75.92;100150.06;30034115;29;96696;-61
2022/08/13 19:56:07;;;;;;;14.13;11.40;;;;;;;21.32;75.89;100127.94;30034007;29;97557;-61
2022/08/13 20:11:10;;;;;;;12.83;10.63;;;;;;;21.20;75.83;100136.13;30031162;29;96745;-61
2022/08/13 20:26:12;;;;;;;13.17;10.37;;;;;;;20.95;76.00;100141.88;30031311;29;96868;-63
2022/08/13 20:41:13;;;;;;;11.97;10.07;;;;;;;20.95;76.46;100134.59;30029287;29;97363;-61
2022/08/13 20:56:13;;;;;;;16.17;11.60;;;;;;;20.96;76.53;100109.13;30029644;29;97363;-64
2022/08/13 21:11:14;;;;;;;12.23;10.93;;;;;;;20.83;76.63;100108.59;30027703;29;97373;-61
2022/08/13 21:26:29;;;;;;;12.10;10.80;;;;;;;20.78;76.81;100110.13;30004205;29;96815;-61
2022/08/13 21:41:30;;;;;;;12.80;11.30;;;;;;;20.50;77.28;100096.53;30025661;29;97499;-61
2022/08/13 21:56:30;;;;;;;13.37;11.57;;;;;;;20.40;77.70;100091.72;30025969;29;96817;-61
2022/08/13 22:11:31;;;;;;;15.07;12.27;;;;;;;20.21;77.94;100093.75;30024774;29;97526;-64
2022/08/13 22:26:31;;;;;;;16.30;12.38;;;;;;;19.99;78.09;100094.34;30023827;29;96770;-64
2022/08/13 22:41:32;;;;;;;;;;;;;;;19.81;78.98;100065.53;30020462;29;96929;-63
2022/08/13 22:56:33;;;;;;;16.77;11.52;;;;;;;19.63;79.30;100061.03;30021863;29;96634;-62
2022/08/13 23:11:36;;;;;;;15.85;13.70;;;;;;;19.46;79.78;100039.25;30019961;29;96768;-62
2022/08/13 23:26:36;;;;;;;18.40;14.37;;;;;;;19.32;80.27;100014.34;30019192;29;97065;-63
2022/08/13 23:41:37;;;;;;;16.92;12.63;;;;;;;19.24;80.62;100009.28;30017299;29;106222;-62
2022/08/13 23:56:37;;;;;;;15.40;12.98;;;;;;;19.22;81.15;100006.03;30036793;29;96698;-60
